Time;durP1;ratioP1;P1;durP2;ratioP2;P2;SDS_P1;SDS_P2;PMS_P1;PMS_P2;Temp;Humidity;BMP_temperature;BMP_pressure;BME280_temperature;BME280_humidity;BME280_pressure;Samples;Min_cycle;Max_cycle;Signal;HPM_P1;HPM_P2
2021/08/18 00:00:11;;;;;;;;;;;18.20;99.90;;;;;;2109418;28;935;-57
2021/08/18 00:01:31;;;;;;;;;;;18.20;99.90;;;;;;2112397;28;935;-57
2021/08/18 00:02:50;;;;;;;;;;;18.20;99.90;;;;;;2110611;28;747;-54
2021/08/18 00:04:09;;;;;;;;;;;18.20;99.90;;;;;;2100362;28;1432;-58
2021/08/18 00:05:29;;;;;;;;;;;18.20;99.90;;;;;;2093974;28;712;-55
2021/08/18 00:06:48;;;;;;;;;;;18.20;99.90;;;;;;2090919;28;1526;-55
2021/08/18 00:08:07;;;;;;;;;;;18.20;99.90;;;;;;2102506;28;983;-55
2021/08/18 00:09:27;;;;;;;;;;;18.20;99.90;;;;;;2096888;28;1546;-56
2021/08/18 00:10:46;;;;;;;;;;;18.20;99.90;;;;;;2101355;28;771;-56
2021/08/18 00:12:06;;;;;;;;;;;18.20;99.90;;;;;;2105262;28;1713;-54
2021/08/18 00:13:25;;;;;;;;;;;18.20;99.90;;;;;;2105704;28;745;-55
2021/08/18 00:14:45;;;;;;;;;;;18.20;99.90;;;;;;2106103;28;731;-56
2021/08/18 00:16:04;;;;;;;;;;;18.20;99.90;;;;;;2105333;28;1658;-56
2021/08/18 00:17:23;;;;;;;;;;;18.20;99.90;;;;;;2105168;28;1902;-54
2021/08/18 00:18:43;;;;;;;;;;;18.20;99.90;;;;;;2101541;28;1798;-55
2021/08/18 00:20:02;;;;;;;;;;;18.20;99.90;;;;;;2097432;28;694;-54
2021/08/18 00:21:22;;;;;;;;;;;18.20;99.90;;;;;;2101853;28;1547;-55
2021/08/18 00:22:41;;;;;;;;;;;18.20;99.90;;;;;;2107934;28;716;-56
2021/08/18 00:24:00;;;;;;;;;;;18.20;99.90;;;;;;2102136;28;1684;-56
2021/08/18 00:25:19;;;;;;;;;;;18.10;99.90;;;;;;2099381;28;730;-56
2021/08/18 00:26:38;;;;;;;;;;;18.20;99.90;;;;;;2098408;28;1424;-56
2021/08/18 00:27:58;;;;;;;;;;;18.20;99.90;;;;;;2090181;28;752;-55
2021/08/18 00:29:17;;;;;;;;;;;18.20;99.90;;;;;;2107852;28;919;-56
2021/08/18 00:30:36;;;;;;;;;;;18.20;99.90;;;;;;2098782;28;1101;-54
2021/08/18 00:31:55;;;;;;;;;;;18.20;99.90;;;;;;2102454;28;1224;-55
2021/08/18 00:33:15;;;;;;;;;;;18.20;99.90;;;;;;2104894;28;2110;-55
2021/08/18 00:34:34;;;;;;;;;;;18.20;99.90;;;;;;2105229;28;1335;-54
2021/08/18 00:35:53;;;;;;;;;;;18.20;99.90;;;;;;2106062;28;1638;-55
2021/08/18 00:37:12;;;;;;;;;;;18.20;99.90;;;;;;2106903;28;1732;-55
2021/08/18 00:38:32;;;;;;;;;;;18.20;99.90;;;;;;2098276;28;1932;-56
2021/08/18 00:39:51;;;;;;;;;;;18.20;99.90;;;;;;2103676;28;730;-54
2021/08/18 00:41:10;;;;;;;;;;;18.20;99.90;;;;;;2105644;28;1689;-54
2021/08/18 00:42:30;;;;;;;;;;;18.20;99.90;;;;;;2107025;28;725;-54
2021/08/18 00:43:50;;;;;;;;;;;18.20;99.90;;;;;;2103525;28;733;-56
2021/08/18 00:45:09;;;;;;;;;;;18.20;99.90;;;;;;2095149;28;741;-55
2021/08/18 00:46:29;;;;;;;;;;;18.20;99.90;;;;;;2094786;28;2060;-55
2021/08/18 00:47:49;;;;;;;;;;;18.20;99.90;;;;;;2103058;28;734;-56
2021/08/18 00:49:08;;;;;;;;;;;18.20;99.90;;;;;;2098145;28;2014;-56
2021/08/18 00:50:28;;;;;;;;;;;18.20;99.90;;;;;;2083207;28;1067;-54
2021/08/18 00:51:48;;;;;;;;;;;18.20;99.90;;;;;;2091738;28;825;-55
2021/08/18 00:53:08;;;;;;;;;;;18.20;99.90;;;;;;2096657;28;1704;-56
2021/08/18 00:54:27;;;;;;;;;;;18.20;99.90;;;;;;2106608;28;713;-55
2021/08/18 00:55:46;;;;;;;;;;;18.20;99.90;;;;;;2103368;28;725;-55
2021/08/18 00:57:06;;;;;;;;;;;18.20;99.90;;;;;;2098413;28;753;-55
2021/08/18 00:58:25;;;;;;;;;;;18.20;99.90;;;;;;2099782;28;1762;-54
2021/08/18 00:59:44;;;;;;;;;;;18.20;99.90;;;;;;2103385;28;884;-55
2021/08/18 01:01:03;;;;;;;;;;;18.20;99.90;;;;;;2100487;28;1007;-54
2021/08/18 01:02:22;;;;;;;;;;;18.20;99.90;;;;;;2098055;28;2348;-54
2021/08/18 01:03:42;;;;;;;;;;;18.20;99.90;;;;;;2102034;28;1350;-54
2021/08/18 01:05:09;;;;;;;;;;;18.20;99.90;;;;;;2101614;28;999;-54
2021/08/18 01:06:28;;;;;;;;;;;18.10;99.90;;;;;;2107400;28;1429;-56
2021/08/18 01:07:51;;;;;;;;;;;18.20;99.90;;;;;;2106153;28;740;-55
2021/08/18 01:09:10;;;;;;;;;;;18.10;99.90;;;;;;2098911;28;1358;-55
2021/08/18 01:10:32;;;;;;;;;;;18.10;99.90;;;;;;2097288;28;755;-54
2021/08/18 01:11:51;;;;;;;;;;;18.20;99.90;;;;;;2099304;28;1878;-56
2021/08/18 01:13:11;;;;;;;;;;;18.20;99.90;;;;;;2102524;28;1002;-56
2021/08/18 01:14:30;;;;;;;;;;;18.20;99.90;;;;;;2107041;28;1190;-56
2021/08/18 01:15:50;;;;;;;;;;;18.10;99.90;;;;;;2102487;28;1690;-54
2021/08/18 01:17:10;;;;;;;;;;;18.10;99.90;;;;;;2098883;28;776;-54
2021/08/18 01:18:30;;;;;;;;;;;18.10;99.90;;;;;;2099635;28;1660;-55
2021/08/18 01:19:50;;;;;;;;;;;18.10;99.90;;;;;;2098193;28;1576;-55
2021/08/18 01:21:09;;;;;;;;;;;18.10;99.90;;;;;;2095002;28;727;-55
2021/08/18 01:22:28;;;;;;;;;;;18.10;99.90;;;;;;2094893;28;810;-54
2021/08/18 01:23:47;;;;;;;;;;;18.10;99.90;;;;;;2103277;28;1390;-54
2021/08/18 01:25:07;;;;;;;;;;;18.10;99.90;;;;;;2107017;28;783;-56
2021/08/18 01:26:26;;;;;;;;;;;18.10;99.90;;;;;;2106096;28;1387;-55
2021/08/18 01:27:47;;;;;;;;;;;18.10;99.90;;;;;;2106734;28;739;-54
2021/08/18 01:29:06;;;;;;;;;;;18.10;99.90;;;;;;2104783;28;1283;-55
2021/08/18 01:30:25;;;;;;;;;;;18.10;99.90;;;;;;2104937;28;1114;-54
2021/08/18 01:31:44;;;;;;;;;;;18.10;99.90;;;;;;2111531;28;724;-56
2021/08/18 01:33:07;;;;;;;;;;;18.10;99.90;;;;;;2110956;28;745;-54
2021/08/18 01:34:26;;;;;;;;;;;18.10;99.90;;;;;;2086962;28;723;-54
2021/08/18 01:35:48;;;;;;;;;;;18.10;99.90;;;;;;2091660;28;725;-54
2021/08/18 01:37:07;;;;;;;;;;;18.10;99.90;;;;;;2094829;28;777;-56
2021/08/18 01:38:26;;;;;;;;;;;18.10;99.90;;;;;;2099483;28;1777;-54
2021/08/18 01:39:45;;;;;;;;;;;18.10;99.90;;;;;;2098790;28;742;-56
2021/08/18 01:41:04;;;;;;;;;;;18.10;99.90;;;;;;2097851;28;730;-56
2021/08/18 01:42:23;;;;;;;;;;;18.10;99.90;;;;;;2094521;28;1706;-55
2021/08/18 01:43:42;;;;;;;;;;;18.10;99.90;;;;;;2101112;28;1950;-54
2021/08/18 01:45:02;;;;;;;;;;;18.10;99.90;;;;;;2104973;28;1345;-55
2021/08/18 01:46:21;;;;;;;;;;;18.10;99.90;;;;;;2106908;28;1472;-56
2021/08/18 01:47:40;;;;;;;;;;;18.20;99.90;;;;;;2106777;28;755;-54
2021/08/18 01:48:59;;;;;;;;;;;18.10;99.90;;;;;;2098988;28;1460;-55
2021/08/18 01:50:19;;;;;;;;;;;18.10;99.90;;;;;;2097971;28;726;-54
2021/08/18 01:51:38;;;;;;;;;;;18.10;99.90;;;;;;2098537;28;785;-55
2021/08/18 01:52:57;;;;;;;;;;;18.10;99.90;;;;;;2097285;28;1653;-54
2021/08/18 01:54:17;;;;;;;;;;;18.10;99.90;;;;;;2102726;28;963;-54
2021/08/18 01:55:36;;;;;;;;;;;18.10;99.90;;;;;;2107291;28;747;-54
2021/08/18 01:56:55;;;;;;;;;;;18.10;99.90;;;;;;2105695;28;1669;-55
2021/08/18 01:58:14;;;;;;;;;;;18.10;99.90;;;;;;2105350;28;2058;-55
2021/08/18 01:59:34;;;;;;;;;;;18.10;99.90;;;;;;2109254;28;941;-54
2021/08/18 02:00:53;;;;;;;;;;;18.10;99.90;;;;;;2100765;28;908;-56
2021/08/18 02:02:13;;;;;;;;;;;18.10;99.90;;;;;;2114830;28;731;-54
2021/08/18 02:03:32;;;;;;;;;;;18.10;99.90;;;;;;2108904;28;1968;-54
2021/08/18 02:04:52;;;;;;;;;;;18.10;99.90;;;;;;2097709;28;782;-56
2021/08/18 02:06:11;;;;;;;;;;;18.10;99.90;;;;;;2098321;28;1345;-55
2021/08/18 02:07:30;;;;;;;;;;;18.10;99.90;;;;;;2097650;28;753;-55
2021/08/18 02:08:49;;;;;;;;;;;18.10;99.90;;;;;;2102914;28;1628;-55
2021/08/18 02:10:10;;;;;;;;;;;18.10;99.90;;;;;;2105777;28;717;-55
2021/08/18 02:11:29;;;;;;;;;;;18.10;99.90;;;;;;2101855;28;1696;-54
2021/08/18 02:12:49;;;;;;;;;;;18.10;99.90;;;;;;2102317;28;1491;-56
2021/08/18 02:14:08;;;;;;;;;;;18.10;99.90;;;;;;2096790;28;1717;-56
2021/08/18 02:15:28;;;;;;;;;;;18.10;99.90;;;;;;2101448;28;1427;-54
2021/08/18 02:16:47;;;;;;;;;;;18.10;99.90;;;;;;2093439;28;1894;-55
2021/08/18 02:18:07;;;;;;;;;;;18.10;99.90;;;;;;2098460;28;1967;-55
2021/08/18 02:19:26;;;;;;;;;;;18.10;99.90;;;;;;2097819;28;770;-56
2021/08/18 02:20:45;;;;;;;;;;;18.10;99.90;;;;;;2090729;28;1382;-54
2021/08/18 02:22:05;;;;;;;;;;;18.10;99.90;;;;;;2091957;28;889;-54
2021/08/18 02:23:24;;;;;;;;;;;18.10;99.90;;;;;;2105505;28;998;-54
2021/08/18 02:24:43;;;;;;;;;;;18.10;99.90;;;;;;2106324;28;918;-54
2021/08/18 02:26:02;;;;;;;;;;;18.10;99.90;;;;;;2099899;28;1662;-55
2021/08/18 02:27:22;;;;;;;;;;;18.10;99.90;;;;;;2102483;28;972;-55
2021/08/18 02:28:41;;;;;;;;;;;18.10;99.90;;;;;;2104312;28;1709;-54
2021/08/18 02:30:00;;;;;;;;;;;18.10;99.90;;;;;;2111911;28;946;-53
2021/08/18 02:31:20;;;;;;;;;;;18.10;99.90;;;;;;2110935;28;928;-55
2021/08/18 02:32:39;;;;;;;;;;;18.10;99.90;;;;;;2102316;28;1321;-53
2021/08/18 02:33:58;;;;;;;;;;;18.10;99.90;;;;;;2097856;28;705;-54
2021/08/18 02:35:17;;;;;;;;;;;18.10;99.90;;;;;;2097457;28;821;-55
2021/08/18 02:36:36;;;;;;;;;;;18.10;99.90;;;;;;2098261;28;1452;-53
2021/08/18 02:37:56;;;;;;;;;;;18.10;99.90;;;;;;2112550;28;1909;-55
2021/08/18 02:39:15;;;;;;;;;;;18.10;99.90;;;;;;2110650;28;1268;-55
2021/08/18 02:40:34;;;;;;;;;;;18.10;99.90;;;;;;2096494;28;718;-53
2021/08/18 02:41:53;;;;;;;;;;;18.10;99.90;;;;;;2085927;28;760;-55
2021/08/18 02:43:13;;;;;;;;;;;18.10;99.90;;;;;;2091219;28;1566;-55
2021/08/18 02:44:32;;;;;;;;;;;18.10;99.90;;;;;;2093814;28;1659;-54
2021/08/18 02:45:51;;;;;;;;;;;18.10;99.90;;;;;;2099147;28;1759;-55
2021/08/18 02:47:11;;;;;;;;;;;18.10;99.90;;;;;;2105649;28;1713;-54
2021/08/18 02:48:30;;;;;;;;;;;18.10;99.90;;;;;;2104345;28;1501;-55
2021/08/18 02:49:49;;;;;;;;;;;18.10;99.90;;;;;;2097450;28;1902;-54
2021/08/18 02:51:09;;;;;;;;;;;18.10;99.90;;;;;;2097579;28;773;-55
2021/08/18 02:52:28;;;;;;;;;;;18.10;99.90;;;;;;2098009;28;789;-55
2021/08/18 02:53:47;;;;;;;;;;;18.10;99.90;;;;;;2097464;28;792;-54
2021/08/18 02:55:06;;;;;;;;;;;18.10;99.90;;;;;;2097658;28;775;-55
2021/08/18 02:56:25;;;;;;;;;;;18.10;99.90;;;;;;2097094;28;1460;-55
2021/08/18 02:57:45;;;;;;;;;;;18.10;99.90;;;;;;2101220;28;1980;-53
2021/08/18 02:59:04;;;;;;;;;;;18.10;99.90;;;;;;2099598;28;1726;-55
2021/08/18 03:00:23;;;;;;;;;;;18.10;99.90;;;;;;2104325;28;1451;-55
2021/08/18 03:01:42;;;;;;;;;;;18.10;99.90;;;;;;2106300;28;700;-56
2021/08/18 03:03:02;;;;;;;;;;;18.10;99.90;;;;;;2099911;28;1650;-55
2021/08/18 03:04:21;;;;;;;;;;;18.10;99.90;;;;;;2089064;28;725;-53
2021/08/18 03:05:40;;;;;;;;;;;18.10;99.90;;;;;;2094941;28;1203;-55
2021/08/18 03:06:59;;;;;;;;;;;18.10;99.90;;;;;;2112062;28;1389;-54
2021/08/18 03:08:19;;;;;;;;;;;18.10;99.90;;;;;;2106060;28;1689;-54
2021/08/18 03:09:38;;;;;;;;;;;18.10;99.90;;;;;;2093760;28;789;-56
2021/08/18 03:10:57;;;;;;;;;;;18.10;99.90;;;;;;2096972;28;809;-55
2021/08/18 03:12:16;;;;;;;;;;;18.10;99.90;;;;;;2097520;28;763;-55
2021/08/18 03:13:35;;;;;;;;;;;18.10;99.90;;;;;;2096711;28;1385;-54
2021/08/18 03:14:54;;;;;;;;;;;18.10;99.90;;;;;;2093870;28;800;-53
2021/08/18 03:16:14;;;;;;;;;;;18.10;99.90;;;;;;2097505;28;1369;-54
2021/08/18 03:17:33;;;;;;;;;;;18.10;99.90;;;;;;2088435;28;1905;-53
2021/08/18 03:18:52;;;;;;;;;;;18.10;99.90;;;;;;2095181;28;1487;-56
2021/08/18 03:20:12;;;;;;;;;;;18.10;99.90;;;;;;2097195;28;769;-53
2021/08/18 03:21:31;;;;;;;;;;;18.10;99.90;;;;;;2088664;28;745;-54
2021/08/18 03:22:50;;;;;;;;;;;18.20;99.90;;;;;;2094149;28;735;-56
2021/08/18 03:24:11;;;;;;;;;;;18.20;99.90;;;;;;2096562;28;1715;-54
2021/08/18 03:25:30;;;;;;;;;;;18.20;99.90;;;;;;2097667;28;751;-53
2021/08/18 03:26:49;;;;;;;;;;;18.30;99.90;;;;;;2097121;28;1440;-54
2021/08/18 03:28:08;;;;;;;;;;;18.30;99.90;;;;;;2094028;28;781;-54
2021/08/18 03:29:28;;;;;;;;;;;18.30;99.90;;;;;;2110398;28;931;-54
2021/08/18 03:30:47;;;;;;;;;;;18.20;99.90;;;;;;2105764;28;1582;-55
2021/08/18 03:32:07;;;;;;;;;;;18.30;99.90;;;;;;2113839;28;777;-54
2021/08/18 03:33:26;;;;;;;;;;;18.20;99.90;;;;;;2114256;28;698;-54
2021/08/18 03:39:25;;;;;;;;;;;18.20;99.90;;;;;;2084351;28;1419;-58
2021/08/18 03:40:46;;;;;;;;;;;18.20;99.90;;;;;;2089077;28;1210;-59
2021/08/18 03:42:06;;;;;;;;;;;18.20;99.90;;;;;;2086149;28;1041;-58
2021/08/18 03:43:25;;;;;;;;;;;18.20;99.90;;;;;;2088610;28;1824;-59
2021/08/18 03:44:44;;;;;;;;;;;18.20;99.90;;;;;;2089566;28;703;-60
2021/08/18 03:46:03;;;;;;;;;;;18.20;99.90;;;;;;2089449;28;687;-59
2021/08/18 03:47:22;;;;;;;;;;;18.20;99.90;;;;;;2080314;28;1526;-56
2021/08/18 03:48:42;;;;;;;;;;;18.20;99.90;;;;;;2077168;28;945;-59
2021/08/18 03:50:01;;;;;;;;;;;18.20;99.90;;;;;;2080902;28;1481;-60
2021/08/18 03:51:20;;;;;;;;;;;18.20;99.90;;;;;;2072486;28;1119;-58
2021/08/18 03:52:40;;;;;;;;;;;18.20;99.90;;;;;;2072442;28;1301;-62
2021/08/18 03:53:59;;;;;;;;;;;18.20;99.90;;;;;;2074074;28;1500;-58
2021/08/18 03:55:18;;;;;;;;;;;18.20;99.90;;;;;;2072256;28;1244;-60
2021/08/18 03:56:38;;;;;;;;;;;18.20;99.90;;;;;;2078210;28;1423;-59
2021/08/18 03:57:57;;;;;;;;;;;18.20;99.90;;;;;;2079209;28;1975;-58
2021/08/18 03:59:16;;;;;;;;;;;18.20;99.90;;;;;;2070561;28;1481;-59
2021/08/18 04:00:35;;;;;;;;;;;18.20;99.90;;;;;;2074501;28;1162;-58
2021/08/18 04:01:55;;;;;;;;;;;18.20;99.90;;;;;;2078734;28;1465;-56
2021/08/18 04:03:14;;;;;;;;;;;18.20;99.90;;;;;;2079112;28;1531;-60
2021/08/18 04:04:33;;;;;;;;;;;18.20;99.90;;;;;;2079132;28;1497;-59
2021/08/18 04:05:53;;;;;;;;;;;18.20;99.90;;;;;;2086307;28;1172;-57
2021/08/18 04:07:12;;;;;;;;;;;18.20;99.90;;;;;;2078497;28;1445;-60
2021/08/18 04:08:31;;;;;;;;;;;18.20;99.90;;;;;;2080068;28;1282;-58
2021/08/18 04:09:50;;;;;;;;;;;18.20;99.90;;;;;;2069981;28;1175;-60
2021/08/18 04:11:11;;;;;;;;;;;18.20;99.90;;;;;;2073443;28;1280;-57
2021/08/18 04:12:30;;;;;;;;;;;18.20;99.90;;;;;;2080199;28;1369;-59
2021/08/18 04:13:49;;;;;;;;;;;18.20;99.90;;;;;;2081008;28;1618;-58
2021/08/18 04:15:09;;;;;;;;;;;18.20;99.90;;;;;;2078733;28;1056;-56
2021/08/18 04:16:28;;;;;;;;;;;18.20;99.90;;;;;;2078590;28;1378;-57
2021/08/18 04:17:47;;;;;;;;;;;18.20;99.90;;;;;;2080837;28;1961;-58
2021/08/18 04:19:07;;;;;;;;;;;18.20;99.90;;;;;;2076370;28;1532;-61
2021/08/18 04:20:26;;;;;;;;;;;18.20;99.90;;;;;;2079451;28;1048;-59
2021/08/18 04:21:45;;;;;;;;;;;18.20;99.90;;;;;;2087513;28;1361;-55
2021/08/18 04:23:05;;;;;;;;;;;18.20;99.90;;;;;;2080929;28;1668;-57
2021/08/18 04:24:24;;;;;;;;;;;18.20;99.90;;;;;;2079146;28;1597;-58
2021/08/18 04:25:43;;;;;;;;;;;18.20;99.90;;;;;;2080184;28;1133;-57
2021/08/18 04:27:02;;;;;;;;;;;18.20;99.90;;;;;;2073296;28;1528;-58
2021/08/18 04:28:21;;;;;;;;;;;18.20;99.90;;;;;;2077505;28;1227;-57
2021/08/18 04:29:40;;;;;;;;;;;18.20;99.90;;;;;;2081108;28;1166;-57
2021/08/18 04:31:00;;;;;;;;;;;18.20;99.90;;;;;;2081597;28;1260;-61
2021/08/18 04:32:19;;;;;;;;;;;18.10;99.90;;;;;;2078932;28;1410;-59
2021/08/18 04:33:38;;;;;;;;;;;18.20;99.90;;;;;;2081565;28;1040;-58
2021/08/18 04:34:57;;;;;;;;;;;18.20;99.90;;;;;;2076637;28;1198;-57
2021/08/18 04:36:17;;;;;;;;;;;18.20;99.90;;;;;;2077304;28;1515;-54
2021/08/18 04:37:36;;;;;;;;;;;18.20;99.90;;;;;;2077507;28;1898;-57
2021/08/18 04:38:55;;;;;;;;;;;18.10;99.90;;;;;;2069523;28;1670;-60
2021/08/18 04:40:15;;;;;;;;;;;18.20;99.90;;;;;;2080651;28;1074;-57
2021/08/18 04:41:34;;;;;;;;;;;18.20;99.90;;;;;;2082368;28;1250;-56
2021/08/18 04:42:53;;;;;;;;;;;18.20;99.90;;;;;;2078553;28;1185;-57
2021/08/18 04:44:12;;;;;;;;;;;18.10;99.90;;;;;;2077769;28;1537;-56
2021/08/18 04:45:31;;;;;;;;;;;18.10;99.90;;;;;;2076922;28;1174;-58
2021/08/18 04:46:51;;;;;;;;;;;18.20;99.90;;;;;;2068526;28;1444;-59
2021/08/18 04:48:10;;;;;;;;;;;18.10;99.90;;;;;;2074446;28;1154;-57
2021/08/18 04:49:30;;;;;;;;;;;18.20;99.90;;;;;;2076018;28;1377;-57
2021/08/18 04:50:49;;;;;;;;;;;18.20;99.90;;;;;;2075630;28;1245;-62
2021/08/18 04:52:08;;;;;;;;;;;18.20;99.90;;;;;;2080732;28;1086;-59
2021/08/18 04:53:27;;;;;;;;;;;18.30;99.90;;;;;;2084556;28;1274;-58
2021/08/18 04:54:46;;;;;;;;;;;18.40;99.90;;;;;;2079455;28;1095;-60
2021/08/18 04:56:06;;;;;;;;;;;18.40;99.90;;;;;;2085096;28;1281;-63
2021/08/18 04:57:25;;;;;;;;;;;18.50;99.90;;;;;;2083930;28;1528;-60
2021/08/18 04:58:44;;;;;;;;;;;18.40;99.90;;;;;;2078040;28;1226;-58
2021/08/18 05:00:03;;;;;;;;;;;18.40;99.90;;;;;;2077198;28;1662;-60
2021/08/18 05:01:22;;;;;;;;;;;18.40;99.90;;;;;;2078136;28;1194;-59
2021/08/18 05:02:42;;;;;;;;;;;18.30;99.90;;;;;;2078604;28;1403;-60
2021/08/18 05:04:01;;;;;;;;;;;18.30;99.90;;;;;;2077932;28;1106;-55
2021/08/18 05:05:20;;;;;;;;;;;18.30;99.90;;;;;;2079418;28;1065;-61
2021/08/18 05:06:39;;;;;;;;;;;18.30;99.90;;;;;;2077770;28;1511;-59
2021/08/18 05:07:59;;;;;;;;;;;18.30;99.90;;;;;;2077258;28;1063;-61
2021/08/18 05:09:18;;;;;;;;;;;18.20;99.90;;;;;;2080654;28;1507;-59
2021/08/18 05:10:37;;;;;;;;;;;18.20;99.90;;;;;;2078851;28;1045;-60
2021/08/18 05:11:57;;;;;;;;;;;18.30;99.90;;;;;;2077204;28;1212;-61
2021/08/18 05:13:16;;;;;;;;;;;18.20;99.90;;;;;;2077619;28;1088;-58
2021/08/18 05:14:36;;;;;;;;;;;18.20;99.90;;;;;;2077779;28;1005;-58
2021/08/18 05:15:55;;;;;;;;;;;18.20;99.90;;;;;;2078885;28;1670;-59
2021/08/18 05:17:14;;;;;;;;;;;18.20;99.90;;;;;;2076041;28;1432;-60
2021/08/18 05:18:33;;;;;;;;;;;18.20;99.90;;;;;;2077641;28;1334;-58
2021/08/18 05:19:52;;;;;;;;;;;18.20;99.90;;;;;;2078118;28;1440;-61
2021/08/18 05:21:11;;;;;;;;;;;18.20;99.90;;;;;;2077060;28;917;-60
2021/08/18 05:22:31;;;;;;;;;;;18.20;99.90;;;;;;2077576;28;1259;-59
2021/08/18 05:23:50;;;;;;;;;;;18.20;99.90;;;;;;2076994;28;1467;-60
2021/08/18 05:25:09;;;;;;;;;;;18.20;99.90;;;;;;2069573;28;1116;-58
2021/08/18 05:26:29;;;;;;;;;;;18.20;99.90;;;;;;2080999;28;1542;-57
2021/08/18 05:27:48;;;;;;;;;;;18.20;99.90;;;;;;2082425;28;1112;-58
2021/08/18 05:29:07;;;;;;;;;;;18.20;99.90;;;;;;2077665;28;1094;-60
2021/08/18 05:30:27;;;;;;;;;;;18.20;99.90;;;;;;2077418;28;1428;-58
2021/08/18 05:31:46;;;;;;;;;;;18.20;99.90;;;;;;2078864;28;1238;-60
2021/08/18 05:33:05;;;;;;;;;;;18.20;99.90;;;;;;2078959;28;1245;-59
2021/08/18 05:34:24;;;;;;;;;;;18.20;99.90;;;;;;2077971;28;1070;-62
2021/08/18 05:35:43;;;;;;;;;;;18.10;99.90;;;;;;2079420;28;1378;-57
2021/08/18 05:37:03;;;;;;;;;;;18.10;99.90;;;;;;2076834;28;1545;-61
2021/08/18 05:38:22;;;;;;;;;;;18.10;99.90;;;;;;2079814;28;1922;-64
2021/08/18 05:39:41;;;;;;;;;;;18.00;99.90;;;;;;2078659;28;1293;-61
2021/08/18 05:41:00;;;;;;;;;;;18.00;99.90;;;;;;2076327;28;1450;-61
2021/08/18 05:42:19;;;;;;;;;;;18.00;99.90;;;;;;2081140;28;1083;-57
2021/08/18 05:43:39;;;;;;;;;;;18.00;99.90;;;;;;2075657;28;1360;-57
2021/08/18 05:44:59;;;;;;;;;;;18.00;99.90;;;;;;2082145;28;1153;-60
2021/08/18 05:46:18;;;;;;;;;;;18.00;99.90;;;;;;2078249;28;1380;-60
2021/08/18 05:47:37;;;;;;;;;;;17.90;99.90;;;;;;2078691;28;858;-58
2021/08/18 05:48:57;;;;;;;;;;;17.90;99.90;;;;;;2078998;28;799;-60
2021/08/18 05:50:16;;;;;;;;;;;17.90;99.90;;;;;;2078286;28;1431;-57
2021/08/18 05:51:35;;;;;;;;;;;17.90;99.90;;;;;;2073307;28;1410;-61
2021/08/18 05:52:54;;;;;;;;;;;17.90;99.90;;;;;;2071164;28;1314;-57
2021/08/18 05:54:13;;;;;;;;;;;17.90;99.90;;;;;;2079363;28;1213;-59
2021/08/18 05:55:33;;;;;;;;;;;17.90;99.90;;;;;;2076984;28;1142;-60
2021/08/18 05:56:52;;;;;;;;;;;17.90;99.90;;;;;;2076533;28;1406;-56
2021/08/18 05:58:11;;;;;;;;;;;17.90;99.90;;;;;;2076390;28;1997;-58
2021/08/18 05:59:30;;;;;;;;;;;17.90;99.90;;;;;;2079340;28;1187;-61
2021/08/18 06:00:49;;;;;;;;;;;17.80;99.90;;;;;;2077489;28;1270;-58
2021/08/18 06:02:09;;;;;;;;;;;17.80;99.90;;;;;;2077443;28;1414;-62
2021/08/18 06:03:28;;;;;;;;;;;17.80;99.90;;;;;;2076453;28;1392;-58
2021/08/18 06:04:48;;;;;;;;;;;17.80;99.90;;;;;;2073471;28;1414;-61
2021/08/18 06:06:07;;;;;;;;;;;17.80;99.90;;;;;;2075763;28;1631;-63
2021/08/18 06:07:26;;;;;;;;;;;17.80;99.90;;;;;;2079778;28;1242;-60
2021/08/18 06:08:45;;;;;;;;;;;17.80;99.90;;;;;;2076889;28;1435;-61
2021/08/18 06:10:05;;;;;;;;;;;17.80;99.90;;;;;;2073814;28;1313;-61
2021/08/18 06:11:25;;;;;;;;;;;17.80;99.90;;;;;;2073969;28;1240;-60
2021/08/18 06:12:44;;;;;;;;;;;17.80;99.90;;;;;;2076939;28;1059;-56
2021/08/18 06:14:04;;;;;;;;;;;17.80;99.90;;;;;;2079549;28;1474;-58
2021/08/18 06:15:23;;;;;;;;;;;17.80;99.90;;;;;;2079046;28;1603;-60
2021/08/18 06:16:43;;;;;;;;;;;17.80;99.90;;;;;;2078287;28;1487;-61
2021/08/18 06:18:02;;;;;;;;;;;17.80;99.90;;;;;;2077649;28;1972;-58
2021/08/18 06:19:22;;;;;;;;;;;17.80;99.90;;;;;;2077599;28;1573;-55
2021/08/18 06:20:41;;;;;;;;;;;17.80;99.90;;;;;;2078781;28;1088;-61
2021/08/18 06:22:01;;;;;;;;;;;17.80;99.90;;;;;;2075213;28;1071;-59
2021/08/18 06:23:21;;;;;;;;;;;17.80;99.90;;;;;;2074492;28;1247;-60
2021/08/18 06:24:45;;;;;;;;;;;17.80;99.90;;;;;;2074826;28;1038;-60
2021/08/18 06:26:04;;;;;;;;;;;17.80;99.90;;;;;;2080484;28;1180;-59
2021/08/18 06:27:25;;;;;;;;;;;17.80;99.90;;;;;;2077436;28;896;-58
2021/08/18 06:28:45;;;;;;;;;;;17.80;99.90;;;;;;2077163;28;1433;-58
2021/08/18 06:30:04;;;;;;;;;;;17.80;99.90;;;;;;2080550;28;1443;-56
2021/08/18 06:31:24;;;;;;;;;;;17.80;99.90;;;;;;2080123;28;1059;-58
2021/08/18 06:32:43;;;;;;;;;;;17.80;99.90;;;;;;2075893;28;1032;-59
2021/08/18 06:34:02;;;;;;;;;;;17.80;99.90;;;;;;2077449;28;1193;-58
2021/08/18 06:35:21;;;;;;;;;;;17.80;99.90;;;;;;2080160;28;1358;-56
2021/08/18 06:36:40;;;;;;;;;;;17.80;99.90;;;;;;2079986;28;1439;-56
2021/08/18 06:37:59;;;;;;;;;;;17.80;99.90;;;;;;2065698;28;1931;-60
2021/08/18 06:39:19;;;;;;;;;;;17.80;99.90;;;;;;2072088;28;1468;-56
2021/08/18 06:40:38;;;;;;;;;;;17.80;99.90;;;;;;2070970;28;921;-61
2021/08/18 06:41:57;;;;;;;;;;;17.80;99.90;;;;;;2074823;28;1279;-58
2021/08/18 06:43:17;;;;;;;;;;;17.80;99.90;;;;;;2074341;28;1486;-58
2021/08/18 06:44:36;;;;;;;;;;;17.80;99.90;;;;;;2072615;28;1479;-59
2021/08/18 06:45:56;;;;;;;;;;;17.80;99.90;;;;;;2077489;28;1495;-58
2021/08/18 06:47:15;;;;;;;;;;;17.80;99.90;;;;;;2076123;28;1354;-57
2021/08/18 06:48:34;;;;;;;;;;;17.70;99.90;;;;;;2076946;28;1300;-58
2021/08/18 06:49:54;;;;;;;;;;;17.80;99.90;;;;;;2075326;28;1255;-64
2021/08/18 06:51:15;;;;;;;;;;;17.80;99.90;;;;;;2074066;28;1063;-61
2021/08/18 06:52:34;;;;;;;;;;;17.70;99.90;;;;;;2073197;28;1269;-59
2021/08/18 06:53:53;;;;;;;;;;;17.80;99.90;;;;;;2077546;28;1340;-61
2021/08/18 06:55:13;;;;;;;;;;;17.80;99.90;;;;;;2079721;28;1364;-59
2021/08/18 06:56:32;;;;;;;;;;;17.70;99.90;;;;;;2074274;28;1523;-64
2021/08/18 06:57:51;;;;;;;;;;;17.80;99.90;;;;;;2077176;28;1926;-57
2021/08/18 06:59:10;;;;;;;;;;;17.70;99.90;;;;;;2078090;28;1331;-56
2021/08/18 07:00:30;;;;;;;;;;;17.70;99.90;;;;;;2079155;28;1628;-62
2021/08/18 07:01:49;;;;;;;;;;;17.70;99.90;;;;;;2077407;28;1200;-60
2021/08/18 07:03:08;;;;;;;;;;;17.70;99.90;;;;;;2075963;28;1303;-65
2021/08/18 07:04:27;;;;;;;;;;;17.70;99.90;;;;;;2075411;28;1095;-64
2021/08/18 07:05:47;;;;;;;;;;;17.80;99.90;;;;;;2084636;28;1502;-61
2021/08/18 07:07:06;;;;;;;;;;;17.70;99.90;;;;;;2079280;28;1468;-61
2021/08/18 07:08:25;;;;;;;;;;;17.70;99.90;;;;;;2077914;28;1300;-60
2021/08/18 07:09:44;;;;;;;;;;;17.70;99.90;;;;;;2077792;28;862;-58
2021/08/18 07:11:03;;;;;;;;;;;17.70;99.90;;;;;;2074872;28;859;-60
2021/08/18 07:12:23;;;;;;;;;;;17.70;99.90;;;;;;2067414;28;1234;-62
2021/08/18 07:13:42;;;;;;;;;;;17.70;99.90;;;;;;2075677;28;1332;-61
2021/08/18 07:15:02;;;;;;;;;;;17.70;99.90;;;;;;2078112;28;1275;-61
2021/08/18 07:16:21;;;;;;;;;;;17.70;99.90;;;;;;2076718;28;1512;-58
2021/08/18 07:17:41;;;;;;;;;;;17.70;99.90;;;;;;2079255;28;1977;-64
2021/08/18 07:19:01;;;;;;;;;;;17.70;99.90;;;;;;2084257;28;1361;-61
2021/08/18 07:20:20;;;;;;;;;;;17.70;99.90;;;;;;2078167;28;1336;-61
2021/08/18 07:21:39;;;;;;;;;;;17.80;99.90;;;;;;2079469;28;1433;-64
2021/08/18 07:22:58;;;;;;;;;;;17.80;99.90;;;;;;2078012;28;1450;-59
2021/08/18 07:24:17;;;;;;;;;;;17.80;99.90;;;;;;2075660;28;1065;-59
2021/08/18 07:25:36;;;;;;;;;;;17.80;99.90;;;;;;2077754;28;1255;-58
2021/08/18 07:26:56;;;;;;;;;;;17.80;99.90;;;;;;2076321;28;1416;-61
2021/08/18 07:28:15;;;;;;;;;;;17.80;99.90;;;;;;2076630;28;1763;-62
2021/08/18 07:29:34;;;;;;;;;;;17.80;99.90;;;;;;2086512;28;1018;-62
2021/08/18 07:30:53;;;;;;;;;;;17.80;99.90;;;;;;2078072;28;1436;-62
2021/08/18 07:32:13;;;;;;;;;;;17.80;99.90;;;;;;2073354;28;1224;-63
2021/08/18 07:33:32;;;;;;;;;;;17.80;99.90;;;;;;2075701;28;1062;-63
2021/08/18 07:34:51;;;;;;;;;;;17.80;99.90;;;;;;2078671;28;1298;-57
2021/08/18 07:36:11;;;;;;;;;;;17.80;99.90;;;;;;2077258;28;1201;-61
2021/08/18 07:37:30;;;;;;;;;;;17.80;99.90;;;;;;2080914;28;1251;-61
2021/08/18 07:38:50;;;;;;;;;;;17.80;99.90;;;;;;2078157;28;1253;-61
2021/08/18 07:40:09;;;;;;;;;;;17.80;99.90;;;;;;2074913;28;1313;-62
2021/08/18 07:41:28;;;;;;;;;;;17.80;99.90;;;;;;2072955;28;1180;-60
2021/08/18 07:42:47;;;;;;;;;;;17.80;99.90;;;;;;2079726;28;1134;-59
2021/08/18 07:44:07;;;;;;;;;;;17.90;99.90;;;;;;2078554;28;1683;-62
2021/08/18 07:45:27;;;;;;;;;;;17.90;99.90;;;;;;2084181;28;1312;-58
2021/08/18 07:46:48;;;;;;;;;;;17.90;99.90;;;;;;2067304;28;1314;-58
2021/08/18 07:48:07;;;;;;;;;;;17.90;99.90;;;;;;2077479;28;862;-59
2021/08/18 07:49:26;;;;;;;;;;;17.90;99.90;;;;;;2076166;28;1048;-60
2021/08/18 07:50:45;;;;;;;;;;;17.90;99.90;;;;;;2075080;28;1125;-61
2021/08/18 07:52:05;;;;;;;;;;;17.90;99.90;;;;;;2076027;28;1178;-57
2021/08/18 07:53:25;;;;;;;;;;;17.90;99.90;;;;;;2076728;28;1469;-61
2021/08/18 07:54:46;;;;;;;;;;;17.90;99.90;;;;;;2076916;28;1167;-60